Patuxent River Naval Air Station,Trapnell Field Aiport Patuxent River US
ICAO: KNHK
IATA: NHK
Category: Medium
Scheduled Services: No

Elevation: 39 ft
TransAlt. 18000 ft.

Airport Communications:
APP/DEP:120.05
ATIS:27.62
CLNC DEL:135.2
GND:120.6
BASE OPS:30.255
PMSV METRO:35.62
LEESBURG RDO:117.6
TWR:123.7

KNHK Zoom In..

Runways:

(A) RW 02 length 5021 ft width 75 ft
---- / hdg 18

(B) RW 06 length 11807 ft width 200 ft
---- / hdg 59

(C) RW 14 length 9742 ft width 200 ft
---- / hdg 136

(D) RW 20 length 5021 ft width 75 ft
---- / hdg 198

(E) RW 24 length 11807 ft width 200 ft
---- / hdg 239

(F) RW 32 length 9742 ft width 200 ft
---- / hdg 316

Location; KNHK
Day. 23 / Time. 07.43 Zulu
* Altimeter: 29.87
* Temperature: 26° c. 78.8°f.
* Wind from: 150° Speed 11 kn with Gusts up to 17 kn.
Dewpoint: 24° c.
Visibility: 10 Statute Miles.
Clouds: Few 700 ft.
Clouds: Scattered 1100 ft.
Clouds: Broken 1900 ft.

KNHK 230743Z AUTO 15011G17KT 10SM FEW007 SCT011 BKN019 26/24 A2987 RMK AO2 CIG 016V026 T02610244 $


Wind From 150°
Speed 11 kn.

 
 
jpsmedia.com for Web Design worldairports.se 2018   terms of use